Time;durP1;ratioP1;P1;durP2;ratioP2;P2;SDS_P1;SDS_P2;PMS_P1;PMS_P2;Temp;Humidity;BMP_temperature;BMP_pressure;BME280_temperature;BME280_humidity;BME280_pressure;Samples;Min_cycle;Max_cycle;Signal;HPM_P1;HPM_P2
2021/06/06 05:21:50;;;;;;;11.00;6.13;;;21.30;99.90;;;;;;4215906;23;20559;-72
2021/06/06 05:24:16;;;;;;;12.13;6.25;;;21.80;99.90;;;;;;4957630;29;20271;-73
2021/06/06 05:26:43;;;;;;;12.82;7.13;;;22.20;99.90;;;;;;4958109;29;20226;-73
2021/06/06 05:29:09;;;;;;;12.18;6.22;;;22.90;99.90;;;;;;4954121;29;20232;-69
2021/06/06 05:31:35;;;;;;;11.32;6.25;;;22.90;99.90;;;;;;4956651;29;20211;-72
2021/06/06 05:34:02;;;;;;;13.40;6.85;;;23.20;99.90;;;;;;4956797;29;20208;-73
2021/06/06 05:36:28;;;;;;;13.55;7.57;;;23.30;99.90;;;;;;4956183;29;20682;-72
2021/06/06 05:38:56;;;;;;;14.77;6.60;;;23.70;99.90;;;;;;4956586;29;20232;-72
2021/06/06 05:41:22;;;;;;;11.60;6.82;;;23.90;99.90;;;;;;4956711;29;20598;-72
2021/06/06 05:43:48;;;;;;;11.50;6.10;;;23.80;99.90;;;;;;4956554;29;20203;-73
2021/06/06 05:46:18;;;;;;;9.90;6.18;;;24.10;99.90;;;;;;4957084;29;20211;-74
2021/06/06 05:48:45;;;;;;;12.57;6.65;;;23.80;99.90;;;;;;4956501;29;20227;-73
2021/06/06 05:51:11;;;;;;;11.60;6.70;;;24.30;99.90;;;;;;4956151;29;20212;-72
2021/06/06 05:53:37;;;;;;;8.27;5.57;;;25.20;99.90;;;;;;4956726;29;20207;-75
2021/06/06 05:56:07;;;;;;;12.30;6.30;;;25.90;99.90;;;;;;4956751;29;20215;-72
2021/06/06 05:58:34;;;;;;;10.07;5.55;;;26.00;99.60;;;;;;4955274;29;20781;-70
2021/06/06 06:01:01;;;;;;;12.43;6.63;;;26.20;98.40;;;;;;4956538;29;20208;-76
2021/06/06 06:03:27;;;;;;;13.45;6.35;;;26.20;98.40;;;;;;4956645;29;20212;-74
2021/06/06 06:05:54;;;;;;;10.20;6.25;;;26.20;98.30;;;;;;4955659;29;20220;-72
2021/06/06 06:08:23;;;;;;;11.70;6.70;;;26.60;97.40;;;;;;4955462;29;20228;-79
2021/06/06 06:10:51;;;;;;;11.43;6.28;;;26.10;98.20;;;;;;4956491;29;20304;-73
2021/06/06 06:13:21;;;;;;;11.60;6.60;;;26.90;97.50;;;;;;4955532;29;20214;-77
2021/06/06 06:15:48;;;;;;;10.52;5.88;;;26.20;97.50;;;;;;4955166;28;20207;-73
2021/06/06 06:18:15;;;;;;;13.15;6.97;;;26.90;97.10;;;;;;4949592;29;20240;-74
2021/06/06 06:20:42;;;;;;;11.10;6.07;;;27.20;95.80;;;;;;4936148;29;20664;-72
2021/06/06 06:23:08;;;;;;;8.57;5.22;;;27.80;95.30;;;;;;4936775;29;20698;-71
2021/06/06 06:25:35;;;;;;;9.90;5.53;;;27.80;94.80;;;;;;4938012;29;20239;-71
2021/06/06 06:28:01;;;;;;;9.13;5.82;;;28.00;94.10;;;;;;4938004;29;20212;-70
2021/06/06 06:30:32;;;;;;;9.05;5.40;;;27.80;93.50;;;;;;4937939;29;20213;-70
2021/06/06 06:33:01;;;;;;;7.72;4.20;;;28.00;93.60;;;;;;4937834;29;20212;-71
2021/06/06 06:35:28;;;;;;;5.80;3.78;;;28.20;92.80;;;;;;4937763;29;20205;-71
2021/06/06 06:37:55;;;;;;;5.82;3.53;;;28.60;90.80;;;;;;4937400;29;20209;-71
2021/06/06 06:40:23;;;;;;;5.22;3.35;;;28.70;90.40;;;;;;4937393;29;20205;-71
2021/06/06 06:42:49;;;;;;;6.28;3.40;;;28.90;88.90;;;;;;4938091;29;20240;-71
2021/06/06 06:45:24;;;;;;;4.93;3.83;;;29.00;88.80;;;;;;4938033;29;20295;-72
2021/06/06 06:47:57;;;;;;;6.78;4.25;;;29.40;90.30;;;;;;4937409;29;20998;-72
2021/06/06 06:50:23;;;;;;;8.07;3.90;;;30.20;87.80;;;;;;4937516;29;20605;-72
2021/06/06 06:52:49;;;;;;;4.43;3.30;;;30.40;86.10;;;;;;4937196;29;20219;-72
2021/06/06 06:55:18;;;;;;;5.65;3.90;;;30.50;84.00;;;;;;4937922;29;20213;-72
2021/06/06 06:57:44;;;;;;;8.07;3.63;;;30.40;81.70;;;;;;4937711;29;20216;-72
2021/06/06 07:00:14;;;;;;;5.82;3.42;;;30.30;82.40;;;;;;4937697;29;20235;-72
2021/06/06 07:02:41;;;;;;;5.97;4.28;;;30.40;83.00;;;;;;4937311;29;20244;-72
2021/06/06 07:05:09;;;;;;;6.45;3.17;;;30.30;84.60;;;;;;4936987;29;20205;-72
2021/06/06 07:07:36;;;;;;;8.32;4.07;;;29.40;82.50;;;;;;4937414;29;20295;-71
2021/06/06 07:10:04;;;;;;;6.60;3.83;;;28.90;83.90;;;;;;4937489;29;20268;-72
2021/06/06 07:12:31;;;;;;;7.22;4.30;;;29.30;84.10;;;;;;4937297;29;20212;-72
2021/06/06 07:14:57;;;;;;;5.10;3.75;;;30.00;82.70;;;;;;4937203;29;20215;-72
2021/06/06 07:17:24;;;;;;;6.10;4.07;;;30.20;83.50;;;;;;4937144;29;20208;-72
2021/06/06 07:19:50;;;;;;;6.22;3.38;;;29.90;84.00;;;;;;4936900;29;20276;-71
2021/06/06 07:22:19;;;;;;;8.18;3.67;;;29.60;84.10;;;;;;4936999;29;20237;-72
2021/06/06 07:24:46;;;;;;;7.53;3.78;;;30.40;83.00;;;;;;4937207;29;20209;-72
2021/06/06 07:27:13;;;;;;;5.93;3.30;;;30.10;82.40;;;;;;4936124;29;20576;-72
2021/06/06 07:29:39;;;;;;;4.97;3.38;;;30.90;78.10;;;;;;4936803;29;20233;-72
2021/06/06 07:32:06;;;;;;;4.60;3.22;;;30.80;78.70;;;;;;4936887;29;20209;-72
2021/06/06 07:34:33;;;;;;;6.13;3.53;;;30.20;78.40;;;;;;4936828;29;20209;-72
2021/06/06 07:37:03;;;;;;;6.07;3.50;;;29.90;79.00;;;;;;4936933;29;20213;-72
2021/06/06 07:39:30;;;;;;;6.95;3.90;;;30.00;78.60;;;;;;4936584;29;20268;-72
2021/06/06 07:41:58;;;;;;;4.90;3.33;;;30.30;79.30;;;;;;4936691;29;20311;-72
2021/06/06 07:44:25;;;;;;;6.88;3.35;;;30.00;80.50;;;;;;4936752;29;20213;-72
2021/06/06 07:46:52;;;;;;;5.32;3.80;;;29.90;81.60;;;;;;4936465;29;20216;-72
2021/06/06 07:49:18;;;;;;;4.63;3.10;;;30.20;79.20;;;;;;4936518;29;20228;-72
2021/06/06 07:51:44;;;;;;;5.10;3.47;;;30.30;78.40;;;;;;4936778;29;20216;-72
2021/06/06 07:54:11;;;;;;;6.75;3.33;;;30.80;79.10;;;;;;4936494;29;20232;-72
2021/06/06 07:56:39;;;;;;;5.38;3.50;;;31.20;76.80;;;;;;4936380;29;20668;-71
2021/06/06 07:59:05;;;;;;;5.20;3.25;;;31.30;77.30;;;;;;4936204;29;20229;-71
2021/06/06 08:01:32;;;;;;;4.45;3.38;;;31.20;77.90;;;;;;4936126;29;20232;-72
2021/06/06 08:03:59;;;;;;;5.22;3.30;;;31.20;76.10;;;;;;4936591;29;20208;-72
2021/06/06 08:06:26;;;;;;;5.97;2.97;;;31.00;75.60;;;;;;4936421;29;20244;-71
2021/06/06 08:08:52;;;;;;;5.95;3.10;;;30.50;75.80;;;;;;4936055;29;20232;-71
2021/06/06 08:11:19;;;;;;;5.03;3.20;;;30.20;77.50;;;;;;4936238;29;20311;-72
2021/06/06 08:13:47;;;;;;;4.65;3.00;;;30.40;75.00;;;;;;4936253;29;20223;-72
2021/06/06 08:16:13;;;;;;;5.18;2.72;;;29.80;79.10;;;;;;4936111;29;20209;-72
2021/06/06 08:18:42;;;;;;;4.05;2.95;;;29.70;79.40;;;;;;4936356;29;20700;-72
2021/06/06 08:21:10;;;;;;;5.82;2.67;;;30.30;76.60;;;;;;4936361;29;20304;-72
2021/06/06 08:23:37;;;;;;;4.82;2.85;;;30.30;80.00;;;;;;4935880;29;20216;-72
2021/06/06 08:26:04;;;;;;;6.88;2.50;;;30.60;77.50;;;;;;4936075;29;20212;-72
2021/06/06 08:28:31;;;;;;;4.85;2.78;;;30.90;78.50;;;;;;4935972;29;20280;-72
2021/06/06 08:31:01;;;;;;;4.60;2.63;;;30.80;75.80;;;;;;4936196;29;20209;-72
2021/06/06 08:33:30;;;;;;;4.93;2.97;;;31.10;77.00;;;;;;4936098;29;20267;-71
2021/06/06 08:36:00;;;;;;;5.45;3.20;;;31.00;76.50;;;;;;4935975;29;20212;-71
2021/06/06 08:38:29;;;;;;;5.55;3.13;;;31.00;76.30;;;;;;4935184;29;20221;-72
2021/06/06 08:41:01;;;;;;;3.90;2.80;;;30.80;78.10;;;;;;4935654;29;20212;-72
2021/06/06 08:43:37;;;;;;;5.07;2.83;;;30.30;77.90;;;;;;4936028;29;20249;-72
2021/06/06 08:46:06;;;;;;;4.07;3.05;;;30.50;77.30;;;;;;4935928;29;20568;-72
2021/06/06 08:48:32;;;;;;;5.82;3.17;;;30.20;77.60;;;;;;4935556;29;20257;-72
2021/06/06 08:51:09;;;;;;;7.07;3.60;;;30.00;78.80;;;;;;4936016;29;20239;-72
2021/06/06 08:53:47;;;;;;;5.45;3.28;;;30.80;77.10;;;;;;4935532;29;20213;-72
2021/06/06 08:56:18;;;;;;;6.07;3.30;;;30.00;79.10;;;;;;4935393;29;20656;-71
2021/06/06 08:58:48;;;;;;;5.47;3.63;;;30.20;79.60;;;;;;4935837;29;20224;-72
2021/06/06 09:01:36;;;;;;;6.03;4.00;;;30.20;78.10;;;;;;4935810;29;20231;-72
2021/06/06 09:04:07;;;;;;;4.70;3.30;;;29.80;79.60;;;;;;4935497;29;20584;-72
2021/06/06 09:06:40;;;;;;;5.45;3.80;;;29.90;78.90;;;;;;4935824;29;20209;-71
2021/06/06 09:09:10;;;;;;;4.70;3.15;;;29.90;79.00;;;;;;4935433;29;20707;-71
2021/06/06 09:11:36;;;;;;;5.45;3.55;;;29.20;82.40;;;;;;4935485;29;20213;-71
2021/06/06 09:14:04;;;;;;;6.22;3.67;;;28.90;83.10;;;;;;4935508;29;20560;-72
2021/06/06 09:16:35;;;;;;;4.75;3.67;;;29.10;81.30;;;;;;4935351;29;20219;-72
2021/06/06 09:19:06;;;;;;;6.93;4.40;;;29.70;80.00;;;;;;4935679;29;20229;-72
2021/06/06 09:21:33;;;;;;;4.38;3.10;;;30.20;78.00;;;;;;4935462;29;20243;-72
2021/06/06 09:24:12;;;;;;;6.10;3.33;;;30.00;80.90;;;;;;4935482;29;20251;-72
2021/06/06 09:26:39;;;;;;;4.93;3.45;;;30.60;78.30;;;;;;4935445;29;20208;-71
2021/06/06 09:29:18;;;;;;;5.70;3.70;;;30.20;79.00;;;;;;4935100;29;20770;-71
2021/06/06 09:31:46;;;;;;;6.28;3.88;;;29.30;80.60;;;;;;4935326;29;20212;-72
2021/06/06 09:34:21;;;;;;;4.60;3.45;;;28.20;82.50;;;;;;4935472;29;20233;-72
2021/06/06 09:37:02;;;;;;;5.80;3.80;;;27.70;84.40;;;;;;4935489;29;20217;-72
2021/06/06 09:39:31;;;;;;;5.50;3.83;;;28.00;83.80;;;;;;4935124;29;20707;-71
2021/06/06 09:41:59;;;;;;;7.50;3.97;;;27.90;83.00;;;;;;4935696;29;20228;-71
2021/06/06 09:44:29;;;;;;;7.00;3.60;;;27.80;84.10;;;;;;4935517;29;20213;-71
2021/06/06 09:47:10;;;;;;;6.80;4.20;;;27.50;86.90;;;;;;4935299;29;20209;-71
2021/06/06 09:49:40;;;;;;;4.95;3.28;;;27.50;83.40;;;;;;4935614;29;20283;-71
2021/06/06 09:52:14;;;;;;;5.20;3.10;;;26.40;86.20;;;;;;4938519;29;20215;-71
2021/06/06 09:54:42;;;;;;;5.57;3.30;;;25.30;89.90;;;;;;4938738;29;20215;-71
2021/06/06 09:57:17;;;;;;;6.40;3.40;;;25.40;90.00;;;;;;4938564;29;20216;-72
2021/06/06 09:59:44;;;;;;;5.13;3.35;;;25.30;90.50;;;;;;4938569;29;20228;-71
2021/06/06 10:02:26;;;;;;;5.03;3.40;;;25.80;90.00;;;;;;4938316;29;20264;-72
2021/06/06 10:05:01;;;;;;;5.32;3.03;;;25.90;89.20;;;;;;4938560;29;20215;-72
2021/06/06 10:07:31;;;;;;;5.25;2.70;;;25.20;90.70;;;;;;4938373;29;20212;-71
2021/06/06 10:09:59;;;;;;;3.83;2.80;;;25.40;90.70;;;;;;4938071;29;20237;-71
2021/06/06 10:12:31;;;;;;;4.43;2.53;;;25.20;91.40;;;;;;4938032;29;20380;-72
2021/06/06 10:15:00;;;;;;;4.65;2.85;;;24.90;91.80;;;;;;4937817;29;20672;-71
2021/06/06 10:17:37;;;;;;;3.72;2.88;;;24.60;91.30;;;;;;4938480;29;20209;-72
2021/06/06 10:20:13;;;;;;;6.13;2.70;;;24.50;91.30;;;;;;4938026;29;20239;-72
2021/06/06 10:22:44;;;;;;;5.32;2.83;;;23.60;92.50;;;;;;4937799;29;20236;-71
2021/06/06 10:25:16;;;;;;;4.43;2.75;;;23.30;92.70;;;;;;4938000;29;20205;-71
2021/06/06 10:27:46;;;;;;;4.22;2.83;;;23.40;94.40;;;;;;4938079;29;20247;-71
2021/06/06 10:30:17;;;;;;;4.13;2.55;;;23.50;92.80;;;;;;4937862;29;20225;-71
2021/06/06 10:32:46;;;;;;;4.93;3.00;;;23.70;91.90;;;;;;4937857;29;20208;-71
2021/06/06 10:35:16;;;;;;;5.85;2.30;;;23.50;92.50;;;;;;4938364;29;20209;-71
2021/06/06 10:37:46;;;;;;;4.35;2.63;;;23.40;94.60;;;;;;4937679;29;20205;-71
2021/06/06 10:40:23;;;;;;;4.20;2.65;;;23.40;95.70;;;;;;4937735;29;20612;-71
2021/06/06 10:42:53;;;;;;;3.75;2.55;;;23.40;93.80;;;;;;4937715;29;20240;-72
2021/06/06 10:45:24;;;;;;;5.45;3.00;;;23.20;95.10;;;;;;4937668;29;20208;-72
2021/06/06 10:47:56;;;;;;;4.97;2.90;;;23.20;94.50;;;;;;4937416;29;20209;-71
2021/06/06 10:50:31;;;;;;;4.75;2.92;;;23.20;95.50;;;;;;4937531;29;20209;-71
2021/06/06 10:53:11;;;;;;;3.92;2.85;;;22.80;94.40;;;;;;4937480;29;20216;-71
2021/06/06 10:55:52;;;;;;;4.55;2.97;;;22.40;94.60;;;;;;4937349;29;20295;-71
2021/06/06 10:58:30;;;;;;;4.78;2.97;;;22.30;94.60;;;;;;4937614;29;20279;-71
2021/06/06 11:01:00;;;;;;;5.18;3.20;;;22.50;94.90;;;;;;4937411;29;20209;-71
2021/06/06 11:03:34;;;;;;;3.85;2.60;;;22.60;94.00;;;;;;4937163;29;20730;-72
2021/06/06 11:06:04;;;;;;;3.67;2.30;;;22.70;94.60;;;;;;4937408;29;20291;-71
2021/06/06 11:08:44;;;;;;;3.10;1.92;;;22.60;93.70;;;;;;4937143;29;20232;-71
2021/06/06 11:11:19;;;;;;;3.58;1.88;;;22.60;93.60;;;;;;4937356;29;20211;-72
2021/06/06 11:13:48;;;;;;;4.43;3.10;;;22.70;94.50;;;;;;4937319;29;20219;-71
2021/06/06 11:16:28;;;;;;;4.80;2.78;;;22.60;94.30;;;;;;4937465;29;20556;-72
2021/06/06 11:18:59;;;;;;;4.13;2.95;;;22.80;94.10;;;;;;4937673;29;20658;-72
2021/06/06 11:21:37;;;;;;;5.57;2.70;;;23.10;94.00;;;;;;4937115;29;20213;-71
2021/06/06 11:24:07;;;;;;;4.68;2.70;;;23.60;94.70;;;;;;4936768;29;20709;-72
2021/06/06 11:26:41;;;;;;;4.07;2.70;;;23.80;93.90;;;;;;4936885;29;20204;-71
2021/06/06 11:29:13;;;;;;;4.15;2.75;;;23.80;92.40;;;;;;4936779;29;20264;-71
2021/06/06 11:31:57;;;;;;;5.13;2.40;;;23.60;93.20;;;;;;4936839;29;20228;-72
2021/06/06 11:34:30;;;;;;;3.83;2.13;;;23.60;94.30;;;;;;4937082;29;20231;-72
2021/06/06 11:37:06;;;;;;;5.32;2.80;;;23.50;93.10;;;;;;4936727;29;20252;-71
2021/06/06 11:39:37;;;;;;;3.92;2.30;;;23.40;92.90;;;;;;4936421;29;20228;-71
2021/06/06 11:42:17;;;;;;;2.67;1.80;;;23.20;93.00;;;;;;4936539;29;20236;-71
2021/06/06 11:44:47;;;;;;;5.63;3.30;;;23.10;93.30;;;;;;4936491;29;20672;-71
2021/06/06 11:47:20;;;;;;;3.83;2.88;;;22.90;93.20;;;;;;4936897;29;20205;-72
2021/06/06 11:49:53;;;;;;;6.07;2.97;;;22.60;94.10;;;;;;4936372;29;20253;-71
2021/06/06 11:52:26;;;;;;;4.30;2.80;;;22.60;94.80;;;;;;4936849;29;20212;-72
2021/06/06 11:54:55;;;;;;;5.15;2.20;;;22.80;94.10;;;;;;4936394;29;20209;-71
2021/06/06 11:57:27;;;;;;;2.53;1.75;;;23.00;93.60;;;;;;4936351;29;20236;-72
2021/06/06 11:59:57;;;;;;;4.03;2.40;;;23.10;93.90;;;;;;4936344;29;20229;-71
2021/06/06 12:02:25;;;;;;;3.38;2.40;;;23.10;94.80;;;;;;4936067;29;20590;-70
2021/06/06 12:04:55;;;;;;;5.30;2.25;;;23.20;93.70;;;;;;4936171;29;20220;-70
2021/06/06 12:07:27;;;;;;;3.80;2.15;;;23.00;93.60;;;;;;4935990;29;20213;-72
2021/06/06 12:09:56;;;;;;;2.75;2.03;;;22.90;94.30;;;;;;4936069;29;20221;-72
2021/06/06 12:12:25;;;;;;;4.13;1.92;;;22.80;94.60;;;;;;4935729;29;20216;-72
2021/06/06 12:15:08;;;;;;;3.33;2.10;;;23.00;94.50;;;;;;4936185;29;20219;-72
2021/06/06 12:17:37;;;;;;;2.70;1.80;;;23.10;94.30;;;;;;4935905;29;20216;-72
2021/06/06 12:20:10;;;;;;;2.25;1.75;;;23.20;94.50;;;;;;4936050;29;20342;-71
2021/06/06 12:22:38;;;;;;;3.30;1.63;;;23.30;95.00;;;;;;4935922;29;20240;-72
2021/06/06 12:25:18;;;;;;;2.55;1.50;;;23.50;94.20;;;;;;4935912;29;20213;-72
2021/06/06 12:27:47;;;;;;;2.85;1.20;;;23.70;92.70;;;;;;4935738;29;20258;-72
2021/06/06 12:30:19;;;;;;;2.92;1.20;;;23.70;94.60;;;;;;4935616;29;20263;-72
2021/06/06 12:32:55;;;;;;;1.95;1.48;;;23.80;94.00;;;;;;4935819;29;20746;-72
2021/06/06 12:35:26;;;;;;;2.45;1.63;;;23.60;91.60;;;;;;4935710;29;20215;-71
2021/06/06 12:37:56;;;;;;;5.07;1.83;;;23.70;92.10;;;;;;4935701;29;20223;-72
2021/06/06 12:40:26;;;;;;;3.00;1.40;;;23.40;92.10;;;;;;4935920;29;20215;-72
2021/06/06 12:42:56;;;;;;;2.58;1.65;;;23.40;92.70;;;;;;4935464;29;20272;-72
2021/06/06 12:45:23;;;;;;;3.10;1.33;;;23.50;92.60;;;;;;4935741;29;20213;-72
2021/06/06 12:47:49;;;;;;;1.65;1.55;;;23.80;92.40;;;;;;4935615;29;20213;-72
2021/06/06 12:50:29;;;;;;;2.65;1.52;;;23.90;92.80;;;;;;4935824;29;20205;-72
2021/06/06 12:52:57;;;;;;;3.33;1.10;;;23.80;92.70;;;;;;4935478;29;20263;-71
2021/06/06 12:55:27;;;;;;;2.67;1.63;;;23.80;92.40;;;;;;4935386;29;20260;-71
2021/06/06 12:57:56;;;;;;;2.10;1.17;;;23.70;92.20;;;;;;4935650;29;20215;-72
2021/06/06 13:00:27;;;;;;;2.05;1.30;;;23.80;91.50;;;;;;4935674;29;20205;-72
2021/06/06 13:02:53;;;;;;;2.25;1.38;;;23.80;91.60;;;;;;4935694;29;20240;-72
2021/06/06 13:05:33;;;;;;;2.50;1.27;;;23.80;91.00;;;;;;4935528;29;20216;-72
2021/06/06 13:08:01;;;;;;;1.52;1.13;;;23.70;92.00;;;;;;4935270;29;20275;-72
2021/06/06 13:10:30;;;;;;;2.08;1.20;;;23.60;91.40;;;;;;4935443;29;20215;-72
2021/06/06 13:12:57;;;;;;;2.35;1.20;;;23.50;91.70;;;;;;4935558;29;20220;-72
2021/06/06 13:15:42;;;;;;;0.98;0.70;;;23.50;92.10;;;;;;4935470;29;20213;-72
2021/06/06 13:18:18;;;;;;;2.55;0.98;;;23.50;91.10;;;;;;4935377;29;20300;-72
2021/06/06 13:20:52;;;;;;;2.10;1.23;;;23.40;91.60;;;;;;4935691;29;20214;-71
2021/06/06 13:23:28;;;;;;;2.67;1.33;;;23.50;92.10;;;;;;4935076;29;20296;-72
2021/06/06 13:25:58;;;;;;;1.90;1.20;;;23.50;92.60;;;;;;4937783;29;20208;-72
2021/06/06 13:28:28;;;;;;;1.58;1.10;;;23.70;93.00;;;;;;4938795;29;20315;-72
2021/06/06 13:31:02;;;;;;;1.80;1.38;;;23.70;92.70;;;;;;4938752;29;20228;-72
2021/06/06 13:33:28;;;;;;;2.30;1.20;;;23.80;90.80;;;;;;4938965;29;20672;-72
2021/06/06 13:35:56;;;;;;;1.83;1.10;;;23.90;91.70;;;;;;4938876;29;20209;-72
2021/06/06 13:38:23;;;;;;;1.77;0.90;;;23.70;91.90;;;;;;4938887;29;20232;-72
2021/06/06 13:40:52;;;;;;;1.25;0.90;;;23.80;91.50;;;;;;4938760;29;20209;-72
2021/06/06 13:43:19;;;;;;;2.28;1.27;;;23.60;91.90;;;;;;4938768;29;20237;-72
2021/06/06 13:45:46;;;;;;;3.22;1.20;;;23.60;90.70;;;;;;4938847;29;20564;-72
2021/06/06 13:48:14;;;;;;;2.03;1.48;;;23.40;91.20;;;;;;4938758;29;20239;-71
2021/06/06 13:50:42;;;;;;;2.15;1.10;;;23.30;90.80;;;;;;4938972;29;20217;-72
2021/06/06 13:53:14;;;;;;;0.88;0.70;;;23.40;91.30;;;;;;4938665;29;20264;-71
2021/06/06 13:55:41;;;;;;;1.73;1.05;;;23.50;91.90;;;;;;4938617;29;20223;-72
2021/06/06 13:58:09;;;;;;;1.75;1.05;;;23.40;92.80;;;;;;4938765;29;20205;-72
2021/06/06 14:00:37;;;;;;;1.75;1.00;;;23.50;91.60;;;;;;4938719;29;20205;-71
2021/06/06 14:03:08;;;;;;;3.10;1.10;;;23.50;91.20;;;;;;4939416;29;20711;-72
2021/06/06 14:05:35;;;;;;;2.35;1.10;;;23.60;91.00;;;;;;4938929;29;20295;-71
2021/06/06 14:08:01;;;;;;;1.30;0.90;;;23.40;91.50;;;;;;4938596;29;20208;-72
2021/06/06 14:10:35;;;;;;;3.53;2.20;;;23.50;91.40;;;;;;4938656;29;20216;-72
2021/06/06 14:13:03;;;;;;;4.63;1.88;;;23.60;92.30;;;;;;4938533;29;20304;-72
2021/06/06 14:15:29;;;;;;;2.95;1.63;;;23.80;92.10;;;;;;4938426;29;20237;-72
2021/06/06 14:17:56;;;;;;;2.85;1.90;;;24.00;92.60;;;;;;4938206;29;20209;-72
2021/06/06 14:20:25;;;;;;;2.92;2.10;;;24.10;91.80;;;;;;4938165;29;20213;-72
2021/06/06 14:22:52;;;;;;;2.53;1.95;;;24.30;91.80;;;;;;4937953;29;20237;-72
2021/06/06 14:25:22;;;;;;;2.25;1.60;;;24.20;91.50;;;;;;4938131;29;20215;-72
2021/06/06 14:27:51;;;;;;;4.72;2.80;;;24.30;92.00;;;;;;4938154;29;20215;-72
2021/06/06 14:30:21;;;;;;;4.45;2.15;;;24.30;91.50;;;;;;4937739;29;20284;-72
2021/06/06 14:32:47;;;;;;;3.40;2.45;;;24.20;92.60;;;;;;4937793;29;20580;-72
2021/06/06 14:35:15;;;;;;;4.43;2.67;;;23.80;92.80;;;;;;4937454;29;20667;-72
2021/06/06 14:37:42;;;;;;;3.88;2.72;;;23.60;92.80;;;;;;4937775;29;20212;-72
2021/06/06 14:40:11;;;;;;;3.05;2.08;;;23.70;92.80;;;;;;4937635;29;20229;-72
2021/06/06 14:42:38;;;;;;;3.63;2.00;;;24.00;91.50;;;;;;4937791;29;20236;-72
2021/06/06 14:45:09;;;;;;;4.85;2.50;;;24.20;92.50;;;;;;4937974;29;20261;-72
2021/06/06 14:47:35;;;;;;;4.53;2.20;;;24.20;92.00;;;;;;4937900;29;20632;-72
2021/06/06 14:50:01;;;;;;;3.42;2.00;;;24.10;91.90;;;;;;4937672;29;20231;-72
2021/06/06 14:52:27;;;;;;;3.35;2.17;;;23.90;92.30;;;;;;4937650;29;20276;-72
2021/06/06 14:54:54;;;;;;;2.33;1.75;;;23.70;92.50;;;;;;4937449;29;20212;-72
2021/06/06 14:57:20;;;;;;;4.72;2.70;;;23.70;93.10;;;;;;4937703;29;20212;-72
2021/06/06 14:59:46;;;;;;;2.67;2.20;;;23.60;93.10;;;;;;4937365;29;20596;-72
2021/06/06 15:02:14;;;;;;;2.65;2.05;;;23.80;92.80;;;;;;4937366;29;20243;-72
2021/06/06 15:04:42;;;;;;;2.20;1.73;;;23.80;92.40;;;;;;4936994;29;20563;-72
2021/06/06 15:07:08;;;;;;;3.15;2.70;;;24.00;93.10;;;;;;4937586;29;20211;-72
2021/06/06 15:09:35;;;;;;;4.70;3.03;;;24.10;92.70;;;;;;4937248;29;20232;-71
2021/06/06 15:12:02;;;;;;;3.08;2.45;;;24.10;92.00;;;;;;4937337;29;20204;-72
2021/06/06 15:14:28;;;;;;;3.45;2.20;;;24.10;92.00;;;;;;4937505;29;20213;-71
2021/06/06 15:16:55;;;;;;;3.10;2.42;;;24.10;92.00;;;;;;4937050;29;20252;-72
2021/06/06 15:19:25;;;;;;;2.65;2.05;;;24.00;91.90;;;;;;4937375;29;20388;-72
2021/06/06 15:21:51;;;;;;;3.63;1.80;;;24.00;93.00;;;;;;4937100;29;20217;-72
2021/06/06 15:24:19;;;;;;;2.22;1.90;;;24.00;93.30;;;;;;4936593;29;20607;-72
2021/06/06 15:26:46;;;;;;;2.85;1.73;;;24.30;93.30;;;;;;4936859;29;20209;-72
2021/06/06 15:29:14;;;;;;;3.15;2.58;;;24.30;92.30;;;;;;4936860;29;20285;-72
2021/06/06 15:31:42;;;;;;;4.32;2.83;;;24.40;91.60;;;;;;4936955;29;20205;-72
2021/06/06 15:34:09;;;;;;;4.30;2.78;;;24.20;91.30;;;;;;4936617;29;20691;-72
2021/06/06 15:36:38;;;;;;;2.80;1.90;;;24.10;91.90;;;;;;4936934;29;20292;-72
2021/06/06 15:39:06;;;;;;;3.20;2.17;;;24.00;91.80;;;;;;4936599;29;20233;-72
2021/06/06 15:41:33;;;;;;;2.80;1.88;;;24.00;91.90;;;;;;4936391;29;20209;-72
2021/06/06 15:43:59;;;;;;;2.45;1.80;;;24.00;91.40;;;;;;4936848;29;20256;-72
2021/06/06 15:46:29;;;;;;;2.17;1.67;;;24.20;91.50;;;;;;4937229;29;20532;-72
2021/06/06 15:48:55;;;;;;;3.65;1.92;;;24.20;92.10;;;;;;4935889;29;20233;-72
2021/06/06 15:51:25;;;;;;;3.60;2.25;;;24.30;91.60;;;;;;4936726;29;20209;-72
2021/06/06 15:53:53;;;;;;;2.75;1.92;;;24.30;90.30;;;;;;4936437;29;20216;-72
2021/06/06 15:56:19;;;;;;;3.13;2.10;;;24.30;91.70;;;;;;4936523;29;20223;-72
2021/06/06 15:58:46;;;;;;;3.92;1.85;;;24.30;90.70;;;;;;4936240;29;20233;-72
2021/06/06 16:01:12;;;;;;;2.95;1.98;;;24.20;90.40;;;;;;4936615;29;20204;-72
2021/06/06 16:03:40;;;;;;;2.67;1.77;;;24.00;90.60;;;;;;4936277;29;20243;-72
2021/06/06 16:06:09;;;;;;;2.00;1.70;;;23.60;91.10;;;;;;4936121;29;20216;-72
2021/06/06 16:08:37;;;;;;;3.25;1.80;;;23.70;91.50;;;;;;4936082;29;20239;-72
2021/06/06 16:11:07;;;;;;;3.05;1.60;;;23.90;92.10;;;;;;4936159;29;20572;-72
2021/06/06 16:13:33;;;;;;;2.95;2.00;;;23.80;91.60;;;;;;4936369;29;20208;-72
2021/06/06 16:16:00;;;;;;;3.95;2.53;;;23.60;90.90;;;;;;4935982;29;20668;-72
2021/06/06 16:18:27;;;;;;;3.08;2.00;;;23.40;90.50;;;;;;4935923;29;20593;-72
2021/06/06 16:20:54;;;;;;;3.38;2.22;;;23.30;91.30;;;;;;4935889;29;20703;-72
2021/06/06 16:23:20;;;;;;;2.83;1.80;;;23.20;91.10;;;;;;4935868;29;20299;-72
2021/06/06 16:25:46;;;;;;;2.13;1.50;;;23.10;91.40;;;;;;4935811;29;20213;-73
2021/06/06 16:28:14;;;;;;;2.05;1.50;;;23.10;91.90;;;;;;4935838;29;20232;-72
2021/06/06 16:30:40;;;;;;;2.53;1.63;;;23.20;91.60;;;;;;4935978;29;20208;-72
2021/06/06 16:33:07;;;;;;;2.60;2.13;;;23.30;91.70;;;;;;4935888;29;20271;-72
2021/06/06 16:35:35;;;;;;;2.40;1.60;;;23.30;90.40;;;;;;4935750;29;20215;-72
2021/06/06 16:38:04;;;;;;;2.92;1.73;;;23.30;91.00;;;;;;4935582;29;20263;-72
2021/06/06 16:40:30;;;;;;;3.40;1.40;;;23.10;91.20;;;;;;4935856;29;20621;-72
2021/06/06 16:42:57;;;;;;;3.38;1.50;;;23.00;91.70;;;;;;4935774;29;20622;-72
2021/06/06 16:45:27;;;;;;;2.10;1.35;;;23.00;91.20;;;;;;4935859;29;20209;-72
2021/06/06 16:47:53;;;;;;;4.50;1.60;;;23.10;90.40;;;;;;4935473;29;20209;-72
2021/06/06 16:50:21;;;;;;;1.80;1.30;;;23.00;90.10;;;;;;4935705;29;20205;-72
2021/06/06 16:52:48;;;;;;;1.63;1.10;;;22.80;90.30;;;;;;4935603;29;20644;-72
2021/06/06 16:55:17;;;;;;;3.45;1.45;;;22.90;91.00;;;;;;4935808;29;20212;-72
2021/06/06 16:57:43;;;;;;;2.85;1.45;;;22.90;90.00;;;;;;4935668;29;20208;-71
2021/06/06 17:00:13;;;;;;;1.45;1.05;;;23.00;89.80;;;;;;4938974;29;20635;-72
2021/06/06 17:02:41;;;;;;;2.58;1.05;;;23.00;91.00;;;;;;4939239;29;20245;-72
2021/06/06 17:05:09;;;;;;;1.20;1.00;;;22.80;90.80;;;;;;4939310;29;20215;-72
2021/06/06 17:07:36;;;;;;;3.17;1.30;;;22.70;90.80;;;;;;4939048;29;20664;-72
2021/06/06 17:10:02;;;;;;;1.85;1.20;;;22.80;89.80;;;;;;4939496;29;20232;-72
2021/06/06 17:12:29;;;;;;;2.03;1.10;;;22.80;90.50;;;;;;4939320;29;20212;-72
2021/06/06 17:14:55;;;;;;;2.35;0.95;;;22.80;90.30;;;;;;4939152;29;20240;-72
2021/06/06 17:17:22;;;;;;;1.67;1.02;;;22.80;90.00;;;;;;4938919;29;20600;-72
2021/06/06 17:19:49;;;;;;;1.55;0.80;;;22.80;86.60;;;;;;4939963;29;20235;-72
2021/06/06 17:22:16;;;;;;;3.47;1.00;;;22.90;87.00;;;;;;4939395;29;20217;-72
2021/06/06 17:24:42;;;;;;;1.90;0.90;;;22.80;87.70;;;;;;4939257;29;20312;-71
2021/06/06 17:27:09;;;;;;;2.40;0.70;;;22.90;87.90;;;;;;4939163;29;20216;-72
2021/06/06 17:29:35;;;;;;;1.40;0.70;;;22.80;88.40;;;;;;4939097;29;20248;-73
2021/06/06 17:32:03;;;;;;;1.02;0.70;;;22.80;88.10;;;;;;4938969;29;20208;-72
2021/06/06 17:34:29;;;;;;;0.90;0.68;;;22.60;89.50;;;;;;4938954;29;20212;-72
2021/06/06 17:36:57;;;;;;;1.13;0.70;;;22.70;89.30;;;;;;4939170;29;20584;-72
2021/06/06 17:39:24;;;;;;;2.03;0.73;;;22.60;89.90;;;;;;4938920;29;20229;-73
2021/06/06 17:41:50;;;;;;;1.23;0.90;;;22.60;89.60;;;;;;4938861;29;20208;-72
2021/06/06 17:44:18;;;;;;;1.40;1.00;;;22.60;88.10;;;;;;4938825;29;20247;-72
2021/06/06 17:46:47;;;;;;;2.97;0.80;;;22.60;87.90;;;;;;4938958;29;20231;-72
2021/06/06 17:49:14;;;;;;;2.88;1.08;;;22.60;90.40;;;;;;4938586;29;20595;-71
2021/06/06 17:51:41;;;;;;;1.27;0.95;;;22.50;90.60;;;;;;4938997;29;20213;-72
2021/06/06 17:54:11;;;;;;;4.03;2.35;;;22.40;90.90;;;;;;4938642;29;20209;-72
2021/06/06 17:56:38;;;;;;;1.33;0.93;;;22.40;89.20;;;;;;4938797;29;20300;-72
2021/06/06 17:59:05;;;;;;;1.50;0.70;;;22.50;90.60;;;;;;4938442;29;20767;-72
2021/06/06 18:01:34;;;;;;;1.88;0.80;;;22.50;90.00;;;;;;4938349;29;20307;-72
2021/06/06 18:04:01;;;;;;;1.33;0.70;;;22.50;90.30;;;;;;4938659;29;20245;-72
2021/06/06 18:06:28;;;;;;;1.25;0.80;;;22.30;90.30;;;;;;4938448;29;20216;-71
2021/06/06 18:08:56;;;;;;;2.42;0.90;;;22.20;91.10;;;;;;4938265;29;20712;-72
2021/06/06 18:11:26;;;;;;;1.02;0.60;;;22.20;90.90;;;;;;4937591;29;20300;-72
2021/06/06 18:13:53;;;;;;;1.80;0.50;;;22.10;91.00;;;;;;4938140;29;20637;-71
2021/06/06 18:16:19;;;;;;;1.00;0.60;;;22.10;90.80;;;;;;4938059;29;20215;-72